Time;durP1;ratioP1;P1;durP2;ratioP2;P2;SDS_P1;SDS_P2;PMS_P1;PMS_P2;Temp;Humidity;BMP_temperature;BMP_pressure;BME280_temperature;BME280_humidity;BME280_pressure;Samples;Min_cycle;Max_cycle;Signal;HPM_P1;HPM_P2
2023/06/02 00:01:49;;;;;;;7.15;3.10;;;21.40;61.90;;;;;;6217451;28;20050;-68
2023/06/02 00:05:13;;;;;;;9.57;3.30;;;21.50;61.80;;;;;;6217700;28;20045;-68
2023/06/02 00:08:25;;;;;;;6.18;3.28;;;21.50;62.60;;;;;;6217419;28;20025;-67
2023/06/02 00:11:39;;;;;;;4.43;3.22;;;21.50;61.60;;;;;;6217188;28;20033;-68
2023/06/02 00:14:49;;;;;;;6.20;3.45;;;21.50;61.60;;;;;;6217199;28;20033;-68
2023/06/02 00:17:59;;;;;;;7.13;3.55;;;21.50;61.70;;;;;;6199997;28;20112;-69
2023/06/02 00:21:19;;;;;;;13.10;3.08;;;21.50;61.80;;;;;;6217262;28;20025;-68
2023/06/02 00:24:32;;;;;;;5.40;3.35;;;21.50;61.90;;;;;;6215518;28;20026;-69
2023/06/02 00:27:45;;;;;;;8.38;3.15;;;21.50;62.00;;;;;;6217110;28;20034;-69
2023/06/02 00:30:58;;;;;;;5.97;3.00;;;21.50;61.90;;;;;;6217228;28;20038;-68
2023/06/02 00:34:13;;;;;;;5.80;2.80;;;21.50;61.90;;;;;;6234739;28;20443;-68
2023/06/02 00:37:24;;;;;;;5.70;3.30;;;21.50;62.00;;;;;;6241153;28;20077;-68
2023/06/02 00:40:33;;;;;;;4.97;2.90;;;21.40;61.90;;;;;;6241347;28;20066;-68
2023/06/02 00:43:50;;;;;;;8.45;3.50;;;21.40;62.10;;;;;;6241533;28;20033;-68
2023/06/02 00:47:02;;;;;;;12.45;3.47;;;21.40;62.30;;;;;;6240999;28;20064;-67
2023/06/02 00:50:19;;;;;;;6.57;2.95;;;21.30;62.40;;;;;;6223660;28;20120;-68
2023/06/02 00:53:28;;;;;;;9.32;3.10;;;21.30;62.50;;;;;;6220614;28;20036;-68
2023/06/02 00:56:46;;;;;;;6.68;3.33;;;21.20;62.60;;;;;;6216145;28;20046;-68
2023/06/02 00:59:54;;;;;;;10.43;3.67;;;21.20;62.80;;;;;;6216078;28;20026;-69
2023/06/02 01:03:17;;;;;;;7.15;3.35;;;21.20;62.90;;;;;;6216327;28;20092;-69
2023/06/02 01:06:37;;;;;;;5.85;3.35;;;21.20;63.10;;;;;;6216418;28;20040;-68
2023/06/02 01:10:05;;;;;;;5.68;3.90;;;21.20;63.10;;;;;;6216101;28;20030;-68
2023/06/02 01:13:25;;;;;;;6.38;3.30;;;21.20;63.10;;;;;;6216117;28;20124;-68
2023/06/02 01:16:32;;;;;;;5.18;3.65;;;21.20;63.10;;;;;;6198571;28;20121;-67
2023/06/02 01:19:51;;;;;;;7.80;3.65;;;21.20;63.10;;;;;;6215610;28;20092;-68
2023/06/02 01:23:21;;;;;;;6.20;3.65;;;21.00;63.30;;;;;;6215732;28;20064;-69
2023/06/02 01:26:34;;;;;;;7.63;3.47;;;21.10;63.60;;;;;;6215570;28;20108;-67
2023/06/02 01:29:55;;;;;;;6.43;3.78;;;21.10;63.80;;;;;;6215593;28;20037;-68
2023/06/02 01:33:18;;;;;;;6.00;3.08;;;21.10;63.80;;;;;;6224625;28;20115;-68
2023/06/02 01:36:28;;;;;;;8.52;3.40;;;21.00;63.90;;;;;;6215343;28;20030;-69
2023/06/02 01:39:39;;;;;;;4.70;3.28;;;21.00;63.90;;;;;;6214681;28;20125;-67
2023/06/02 01:42:57;;;;;;;5.17;3.33;;;21.10;64.10;;;;;;6236852;28;20092;-68
2023/06/02 01:46:19;;;;;;;7.53;3.85;;;21.10;64.00;;;;;;6239665;28;20112;-67
2023/06/02 01:49:30;;;;;;;7.03;3.38;;;21.10;64.00;;;;;;6239518;28;20064;-68
2023/06/02 01:52:45;;;;;;;12.05;3.50;;;21.10;64.00;;;;;;6226452;28;20128;-68
2023/06/02 01:55:58;;;;;;;6.25;3.53;;;21.10;64.00;;;;;;6214824;28;20030;-68
2023/06/02 01:59:16;;;;;;;5.53;3.50;;;21.00;64.00;;;;;;6215237;28;20370;-68
2023/06/02 02:02:37;;;;;;;5.60;3.80;;;21.00;64.10;;;;;;6198463;28;20044;-67
2023/06/02 02:05:55;;;;;;;7.85;3.88;;;21.00;64.20;;;;;;6215214;28;20192;-68
2023/06/02 02:09:23;;;;;;;4.60;3.30;;;20.90;65.10;;;;;;6214968;28;20126;-68
2023/06/02 02:12:33;;;;;;;5.22;3.22;;;20.90;64.30;;;;;;6197244;28;20688;-68
2023/06/02 02:15:54;;;;;;;9.00;3.58;;;20.90;64.10;;;;;;6214586;28;20037;-69
2023/06/02 02:19:13;;;;;;;4.28;3.38;;;20.90;64.00;;;;;;6214201;28;20042;-69
2023/06/02 02:22:27;;;;;;;9.00;4.00;;;20.90;64.00;;;;;;6214407;28;20037;-67
2023/06/02 02:25:33;;;;;;;6.32;3.25;;;20.90;63.90;;;;;;6214947;28;20109;-69
2023/06/02 02:28:50;;;;;;;5.50;3.58;;;20.90;63.80;;;;;;6214702;28;20030;-67
2023/06/02 02:32:19;;;;;;;6.40;3.28;;;20.90;63.90;;;;;;6236814;28;20415;-68
2023/06/02 02:35:32;;;;;;;8.30;4.05;;;20.80;63.80;;;;;;6214621;28;20054;-68
2023/06/02 02:38:44;;;;;;;6.78;3.63;;;20.80;63.70;;;;;;6231970;28;20621;-69
2023/06/02 02:42:02;;;;;;;6.68;3.63;;;20.70;63.60;;;;;;6239020;28;20052;-69
2023/06/02 02:45:19;;;;;;;6.72;3.78;;;20.70;63.70;;;;;;6238949;28;20053;-68
2023/06/02 02:48:32;;;;;;;4.93;3.45;;;20.60;63.70;;;;;;6239002;28;20076;-67
2023/06/02 02:51:39;;;;;;;12.00;4.10;;;20.50;64.00;;;;;;6236126;28;20030;-67
2023/06/02 02:54:57;;;;;;;7.18;3.50;;;20.50;64.20;;;;;;6218880;28;20033;-68
2023/06/02 02:58:12;;;;;;;8.07;3.97;;;20.40;64.30;;;;;;6218701;28;20111;-68
2023/06/02 03:01:30;;;;;;;13.05;3.92;;;20.40;64.40;;;;;;6219175;28;20026;-67
2023/06/02 03:04:41;;;;;;;6.05;3.75;;;20.40;64.50;;;;;;6218931;28;20108;-67
2023/06/02 03:08:04;;;;;;;6.88;3.47;;;20.40;64.50;;;;;;6218818;28;20696;-67
2023/06/02 03:11:24;;;;;;;6.60;3.95;;;20.40;64.60;;;;;;6218885;28;20034;-67
2023/06/02 03:14:33;;;;;;;8.63;4.07;;;20.40;64.50;;;;;;6218946;28;20068;-68
2023/06/02 03:17:50;;;;;;;8.38;3.65;;;20.50;64.60;;;;;;6218550;28;20121;-68
2023/06/02 03:21:09;;;;;;;7.65;3.83;;;20.40;64.50;;;;;;6218706;28;20057;-69
2023/06/02 03:24:26;;;;;;;7.32;3.70;;;20.40;64.50;;;;;;6218274;28;20050;-69
2023/06/02 03:27:37;;;;;;;6.65;3.53;;;20.40;64.50;;;;;;6236859;28;20107;-70
2023/06/02 03:30:55;;;;;;;7.75;3.65;;;20.40;64.50;;;;;;6242958;28;20057;-68
2023/06/02 03:34:10;;;;;;;8.35;3.70;;;20.40;64.40;;;;;;6235795;28;20131;-68
2023/06/02 03:37:24;;;;;;;6.03;3.80;;;20.40;64.50;;;;;;6242270;28;20072;-67
2023/06/02 03:40:37;;;;;;;5.97;3.67;;;20.40;64.50;;;;;;6242655;28;20400;-68
2023/06/02 03:43:48;;;;;;;6.63;3.90;;;20.50;64.50;;;;;;6242650;28;20021;-68
2023/06/02 03:47:05;;;;;;;9.35;4.22;;;20.40;64.40;;;;;;6242618;28;20080;-68
2023/06/02 03:50:12;;;;;;;5.78;3.58;;;20.40;64.50;;;;;;6224545;28;20120;-68
2023/06/02 03:53:28;;;;;;;8.77;3.85;;;20.40;64.60;;;;;;6223014;28;20045;-68
2023/06/02 03:56:36;;;;;;;9.90;4.15;;;20.40;64.70;;;;;;6217356;28;20030;-68
2023/06/02 03:59:55;;;;;;;7.10;3.90;;;20.50;64.80;;;;;;6217357;28;20186;-68
2023/06/02 04:03:25;;;;;;;7.32;4.10;;;20.50;64.70;;;;;;6216959;28;20041;-67
2023/06/02 04:06:41;;;;;;;7.93;3.83;;;20.50;64.80;;;;;;6217332;28;20041;-67
2023/06/02 04:09:55;;;;;;;9.13;5.25;;;20.50;64.70;;;;;;6217217;28;20052;-68
2023/06/02 04:13:28;;;;;;;5.63;3.85;;;20.50;64.70;;;;;;6217414;28;20069;-68
2023/06/02 04:16:39;;;;;;;8.35;4.25;;;20.50;64.70;;;;;;6217578;28;20555;-68
2023/06/02 04:20:03;;;;;;;9.95;4.00;;;20.50;64.70;;;;;;6217591;28;20036;-69
2023/06/02 04:23:26;;;;;;;10.00;4.57;;;20.50;64.70;;;;;;6205208;28;20072;-68
2023/06/02 04:26:38;;;;;;;8.38;4.30;;;20.50;64.60;;;;;;6217474;28;20041;-68
2023/06/02 04:29:45;;;;;;;8.57;4.53;;;20.50;64.50;;;;;;6223031;28;20033;-71
2023/06/02 04:33:19;;;;;;;8.82;4.40;;;20.50;64.60;;;;;;6241139;28;20025;-67
2023/06/02 04:36:28;;;;;;;6.18;3.85;;;20.40;64.50;;;;;;6242033;28;20049;-69
2023/06/02 04:39:55;;;;;;;7.35;4.65;;;20.50;64.40;;;;;;6240597;28;20095;-69
2023/06/02 04:43:17;;;;;;;7.72;3.78;;;20.40;64.40;;;;;;6240681;28;20106;-68
2023/06/02 04:46:30;;;;;;;8.93;4.22;;;20.50;64.40;;;;;;6240653;28;20045;-68
2023/06/02 04:49:44;;;;;;;5.75;3.60;;;20.50;64.30;;;;;;6240482;28;20030;-69
2023/06/02 04:52:55;;;;;;;8.52;4.45;;;20.50;64.30;;;;;;6223037;28;20030;-68
2023/06/02 04:56:18;;;;;;;11.50;4.30;;;20.50;64.10;;;;;;6240758;28;20060;-68
2023/06/02 04:59:27;;;;;;;9.65;4.47;;;20.60;64.10;;;;;;6239895;28;20034;-69
2023/06/02 05:02:39;;;;;;;7.50;4.15;;;20.60;64.00;;;;;;6240263;28;20032;-68
2023/06/02 05:05:50;;;;;;;8.57;3.97;;;20.60;64.00;;;;;;6240266;28;20033;-69
2023/06/02 05:09:18;;;;;;;8.07;4.07;;;20.60;63.90;;;;;;6239965;28;20029;-69
2023/06/02 05:12:31;;;;;;;6.38;3.65;;;20.50;63.80;;;;;;6222873;28;20112;-69
2023/06/02 05:15:41;;;;;;;6.28;3.55;;;20.60;63.80;;;;;;6221818;28;20333;-69
2023/06/02 05:18:52;;;;;;;10.43;3.78;;;20.60;63.70;;;;;;6239111;28;20143;-68
2023/06/02 05:22:15;;;;;;;6.78;3.72;;;20.60;63.50;;;;;;6240331;28;20084;-68
2023/06/02 05:25:27;;;;;;;12.05;4.55;;;20.60;63.50;;;;;;6223057;28;20055;-68
2023/06/02 05:28:39;;;;;;;8.73;4.25;;;20.60;63.50;;;;;;6240055;28;20025;-68
2023/06/02 05:31:50;;;;;;;6.68;3.85;;;20.70;63.50;;;;;;6240051;28;20029;-67
2023/06/02 05:35:02;;;;;;;7.07;4.25;;;20.80;63.40;;;;;;6239806;28;20033;-69
2023/06/02 05:38:21;;;;;;;7.35;3.83;;;20.80;63.20;;;;;;6239216;28;20037;-69
2023/06/02 05:41:32;;;;;;;19.90;5.00;;;20.90;62.90;;;;;;6240048;28;20457;-69
2023/06/02 05:44:44;;;;;;;9.48;4.65;;;20.90;62.70;;;;;;6240002;28;20029;-69
2023/06/02 05:47:57;;;;;;;7.38;4.30;;;21.00;62.70;;;;;;6239135;28;20443;-69
2023/06/02 05:51:20;;;;;;;6.82;4.05;;;21.00;62.50;;;;;;6222840;28;20021;-67
2023/06/02 05:54:27;;;;;;;10.20;5.18;;;21.10;62.50;;;;;;6239335;28;20671;-68
2023/06/02 05:57:39;;;;;;;8.68;4.38;;;21.10;62.00;;;;;;6187791;28;20068;-69
2023/06/02 06:00:52;;;;;;;7.38;4.60;;;21.20;61.60;;;;;;6214772;28;20038;-68
2023/06/02 06:04:15;;;;;;;8.02;4.30;;;21.20;61.60;;;;;;6214012;28;20069;-69
2023/06/02 06:07:26;;;;;;;10.95;5.15;;;21.20;61.40;;;;;;6214450;28;20033;-68
2023/06/02 06:10:42;;;;;;;8.60;4.50;;;21.30;61.40;;;;;;6214899;28;20038;-69
2023/06/02 06:13:54;;;;;;;14.10;4.22;;;21.40;61.10;;;;;;6214994;28;20034;-69
2023/06/02 06:17:16;;;;;;;9.98;4.75;;;21.40;60.80;;;;;;6238637;28;20131;-68
2023/06/02 06:20:27;;;;;;;10.38;4.15;;;21.50;60.80;;;;;;6238881;28;20029;-69
2023/06/02 06:23:31;;;;;;;8.77;4.93;;;21.60;60.70;;;;;;6221020;28;20061;-68
2023/06/02 06:26:34;;;;;;;10.20;5.05;;;21.70;60.60;;;;;;6226839;28;20068;-68
2023/06/02 06:29:47;;;;;;;14.05;4.78;;;21.80;60.40;;;;;;6220473;28;20113;-69
2023/06/02 06:32:57;;;;;;;15.05;5.05;;;21.90;60.20;;;;;;6209945;28;20021;-70
2023/06/02 06:36:20;;;;;;;17.65;5.38;;;22.00;60.00;;;;;;6221435;28;20081;-67
2023/06/02 06:39:28;;;;;;;10.02;5.20;;;22.10;59.70;;;;;;6237882;28;20056;-69
2023/06/02 06:42:44;;;;;;;9.73;5.23;;;22.20;59.60;;;;;;6228293;28;20029;-69
2023/06/02 06:46:08;;;;;;;14.07;5.40;;;22.30;59.30;;;;;;6236916;28;20064;-68
2023/06/02 06:49:25;;;;;;;10.13;4.95;;;22.50;59.20;;;;;;6238645;28;20134;-68
2023/06/02 06:52:32;;;;;;;16.63;6.00;;;22.50;59.00;;;;;;6226466;28;20057;-67
2023/06/02 06:55:48;;;;;;;15.40;5.85;;;22.50;58.80;;;;;;6216813;28;20133;-68
2023/06/02 06:58:57;;;;;;;11.07;5.50;;;22.50;58.50;;;;;;6238703;28;20501;-69
2023/06/02 07:02:19;;;;;;;13.73;5.18;;;22.60;58.40;;;;;;6239165;28;20096;-69
2023/06/02 07:05:30;;;;;;;13.98;5.03;;;22.80;58.10;;;;;;6239403;28;20075;-68
2023/06/02 07:08:39;;;;;;;9.63;5.00;;;23.30;57.30;;;;;;6238941;28;20033;-69
2023/06/02 07:11:56;;;;;;;11.43;4.43;;;23.90;56.20;;;;;;6238302;28;20025;-68
2023/06/02 07:15:26;;;;;;;12.25;4.95;;;24.40;54.90;;;;;;6238761;28;20033;-68
2023/06/02 07:18:32;;;;;;;8.43;4.55;;;24.50;54.40;;;;;;6237811;28;20033;-69
2023/06/02 07:21:49;;;;;;;6.90;4.78;;;24.30;54.20;;;;;;6238309;28;20087;-68
2023/06/02 07:24:55;;;;;;;7.65;4.57;;;24.20;54.10;;;;;;6238146;28;20412;-68
2023/06/02 07:28:08;;;;;;;7.80;4.35;;;24.10;54.30;;;;;;6238116;28;20033;-69
2023/06/02 07:31:27;;;;;;;8.57;4.55;;;24.10;54.50;;;;;;6238349;28;20030;-68
2023/06/02 07:34:32;;;;;;;11.18;4.72;;;24.10;54.40;;;;;;6212233;28;20421;-69
2023/06/02 07:37:53;;;;;;;12.38;4.35;;;24.00;54.20;;;;;;6216464;28;20033;-69
2023/06/02 07:41:22;;;;;;;10.82;4.55;;;24.00;54.20;;;;;;6218538;28;20120;-68
2023/06/02 07:44:33;;;;;;;8.80;4.50;;;24.10;53.90;;;;;;6218362;28;20038;-67
2023/06/02 07:47:50;;;;;;;7.05;4.50;;;24.20;53.80;;;;;;6218095;28;20037;-70
2023/06/02 07:51:01;;;;;;;5.90;4.15;;;24.30;53.40;;;;;;6218020;28;20068;-68
2023/06/02 07:54:28;;;;;;;13.55;4.78;;;24.40;53.20;;;;;;6217426;28;20050;-69
2023/06/02 07:57:39;;;;;;;8.35;4.28;;;24.60;52.90;;;;;;6223800;28;20041;-70
2023/06/02 08:00:55;;;;;;;10.23;5.00;;;24.70;52.40;;;;;;6242131;28;20396;-69
2023/06/02 08:04:25;;;;;;;6.32;3.90;;;24.80;52.00;;;;;;6243013;28;20022;-69
2023/06/02 08:07:39;;;;;;;9.70;4.40;;;24.90;51.70;;;;;;6241858;28;20037;-68
2023/06/02 08:10:56;;;;;;;6.18;3.97;;;25.00;51.30;;;;;;6241961;28;20025;-68
2023/06/02 08:14:10;;;;;;;6.03;3.65;;;25.10;51.20;;;;;;6241485;28;20123;-68
2023/06/02 08:17:44;;;;;;;8.27;3.88;;;25.10;50.70;;;;;;6242451;28;20033;-68
2023/06/02 08:21:00;;;;;;;7.00;4.47;;;25.30;50.40;;;;;;6242240;28;20018;-69
2023/06/02 08:24:12;;;;;;;10.18;4.07;;;25.30;50.10;;;;;;6223983;28;20141;-69
2023/06/02 08:27:30;;;;;;;15.27;3.88;;;25.40;50.60;;;;;;6241631;28;20061;-68
2023/06/02 08:30:44;;;;;;;7.68;4.00;;;25.60;49.80;;;;;;6241058;28;20029;-70
2023/06/02 08:33:58;;;;;;;6.85;3.78;;;25.60;49.30;;;;;;6241242;28;20040;-69
2023/06/02 08:37:29;;;;;;;5.40;3.40;;;25.70;48.90;;;;;;6241061;28;20037;-68
2023/06/02 08:40:42;;;;;;;6.80;3.97;;;25.80;48.50;;;;;;6241084;28;20343;-68
2023/06/02 08:44:04;;;;;;;8.55;3.90;;;25.90;48.30;;;;;;6222467;28;20140;-69
2023/06/02 08:47:19;;;;;;;10.15;4.40;;;25.90;48.10;;;;;;6240604;28;20030;-69
2023/06/02 08:50:37;;;;;;;6.20;3.90;;;26.10;48.00;;;;;;6241627;28;20057;-69
2023/06/02 08:53:44;;;;;;;6.15;3.35;;;26.20;47.80;;;;;;6240682;28;20108;-68
2023/06/02 08:56:57;;;;;;;6.05;3.55;;;26.40;47.60;;;;;;6228067;28;20041;-69
2023/06/02 09:00:10;;;;;;;6.88;3.60;;;26.40;47.20;;;;;;6216180;28;20045;-70
2023/06/02 09:03:27;;;;;;;7.90;3.70;;;26.40;47.00;;;;;;6219591;28;20127;-68
2023/06/02 09:06:37;;;;;;;6.03;3.70;;;26.50;46.90;;;;;;6240421;28;20037;-68
2023/06/02 09:10:02;;;;;;;7.18;4.15;;;26.60;46.90;;;;;;6240527;28;20026;-68
2023/06/02 09:13:11;;;;;;;6.10;3.80;;;26.60;46.80;;;;;;6215879;28;20033;-68
2023/06/02 09:16:26;;;;;;;8.15;3.90;;;26.70;46.80;;;;;;6215166;28;20071;-70
2023/06/02 09:20:07;;;;;;;5.88;3.58;;;26.70;46.90;;;;;;6197582;28;20140;-69
2023/06/02 09:23:48;;;;;;;8.73;3.38;;;26.80;46.80;;;;;;6215859;28;20036;-68
2023/06/02 09:27:07;;;;;;;7.07;3.42;;;26.90;46.20;;;;;;6215941;28;20026;-68
2023/06/02 09:30:18;;;;;;;3.88;2.60;;;27.00;46.00;;;;;;6216183;28;20095;-68
2023/06/02 09:33:28;;;;;;;9.45;3.17;;;27.10;45.30;;;;;;6228289;28;20053;-68
2023/06/02 09:36:47;;;;;;;8.82;2.97;;;27.10;44.80;;;;;;6240083;28;20037;-69
2023/06/02 09:40:07;;;;;;;9.20;3.22;;;27.20;44.50;;;;;;6240188;28;20112;-69
2023/06/02 09:43:28;;;;;;;8.00;3.38;;;27.30;44.40;;;;;;6239491;28;20116;-68
2023/06/02 09:46:50;;;;;;;10.38;6.75;;;27.40;44.20;;;;;;6239892;28;20132;-68
2023/06/02 09:50:13;;;;;;;11.82;3.40;;;27.50;44.30;;;;;;6239681;28;20025;-68
2023/06/02 09:53:27;;;;;;;5.82;3.45;;;27.60;44.20;;;;;;6221965;28;20037;-68
2023/06/02 09:56:39;;;;;;;6.15;3.45;;;27.70;43.90;;;;;;6239315;28;20041;-68
2023/06/02 09:59:55;;;;;;;8.73;3.88;;;27.80;43.90;;;;;;6238806;28;20029;-68
2023/06/02 10:03:16;;;;;;;7.65;3.35;;;27.80;43.90;;;;;;6221907;28;20026;-68
2023/06/02 10:06:44;;;;;;;9.38;3.50;;;27.80;43.50;;;;;;6239675;28;20100;-68
2023/06/02 10:10:19;;;;;;;6.72;3.78;;;27.80;43.60;;;;;;6239368;28;20029;-68
2023/06/02 10:13:44;;;;;;;7.05;3.40;;;27.90;43.60;;;;;;6221307;28;20140;-68
2023/06/02 10:17:15;;;;;;;13.43;3.67;;;27.90;43.40;;;;;;6238880;28;20037;-70
2023/06/02 10:20:45;;;;;;;6.35;3.50;;;28.00;43.20;;;;;;6238803;28;20105;-68
2023/06/02 10:24:06;;;;;;;6.50;3.40;;;28.00;43.00;;;;;;6239457;28;20030;-69
2023/06/02 10:27:48;;;;;;;5.40;3.10;;;28.10;42.80;;;;;;6240558;28;20091;-69
2023/06/02 10:31:13;;;;;;;4.32;2.47;;;28.30;42.50;;;;;;6240393;28;20056;-68
2023/06/02 10:34:40;;;;;;;6.03;3.13;;;28.30;42.00;;;;;;6219476;28;20088;-68
2023/06/02 10:38:28;;;;;;;5.85;3.08;;;28.40;42.00;;;;;;6214582;28;20036;-68
2023/06/02 10:42:06;;;;;;;9.32;2.88;;;28.50;41.80;;;;;;6214471;28;20525;-68
2023/06/02 10:45:24;;;;;;;6.10;2.90;;;28.60;41.50;;;;;;6196497;28;20026;-69
2023/06/02 10:48:47;;;;;;;4.55;3.20;;;28.70;41.30;;;;;;6214308;28;20127;-69
2023/06/02 10:52:15;;;;;;;7.95;3.08;;;28.70;41.50;;;;;;6221256;28;20018;-67
2023/06/02 10:55:21;;;;;;;12.38;3.35;;;28.90;41.40;;;;;;6238447;28;20080;-69
2023/06/02 10:58:50;;;;;;;6.57;3.10;;;29.00;41.40;;;;;;6237527;28;20037;-68
2023/06/02 11:02:16;;;;;;;6.90;3.30;;;29.20;41.10;;;;;;6221102;28;20425;-69
2023/06/02 11:05:37;;;;;;;4.53;2.95;;;30.10;40.10;;;;;;6221495;28;20025;-69
2023/06/02 11:08:51;;;;;;;5.65;3.00;;;31.40;38.20;;;;;;6238822;28;20033;-69
2023/06/02 11:12:07;;;;;;;6.07;2.97;;;32.40;36.40;;;;;;6240642;28;20078;-68
2023/06/02 11:15:21;;;;;;;7.10;3.28;;;33.10;35.10;;;;;;6243976;28;20145;-68
2023/06/02 11:18:30;;;;;;;5.32;3.45;;;33.80;34.00;;;;;;6242942;28;20044;-69
2023/06/02 11:21:37;;;;;;;6.05;3.45;;;34.20;33.20;;;;;;6225106;28;20037;-68
2023/06/02 11:24:50;;;;;;;7.30;3.25;;;34.70;32.50;;;;;;6242753;28;20033;-68
2023/06/02 11:28:10;;;;;;;4.57;2.85;;;35.10;32.00;;;;;;6224959;28;20033;-68
2023/06/02 11:31:23;;;;;;;5.72;3.03;;;35.50;31.50;;;;;;6242767;28;20037;-68
2023/06/02 11:34:37;;;;;;;6.68;2.90;;;35.70;31.20;;;;;;6242682;28;20151;-68
2023/06/02 11:38:16;;;;;;;6.35;2.90;;;35.80;30.70;;;;;;6242689;28;20034;-70
2023/06/02 11:41:25;;;;;;;5.05;3.45;;;36.00;30.60;;;;;;6242745;28;20037;-69
2023/06/02 11:44:46;;;;;;;7.63;3.25;;;36.20;30.40;;;;;;6242988;28;20595;-69
2023/06/02 11:48:12;;;;;;;6.75;3.33;;;36.40;30.20;;;;;;6242237;28;20030;-69
2023/06/02 11:51:22;;;;;;;5.57;2.90;;;36.50;30.10;;;;;;6239623;28;20049;-69
2023/06/02 11:54:27;;;;;;;5.38;3.33;;;36.60;30.20;;;;;;6239279;28;20022;-69
2023/06/02 11:57:34;;;;;;;7.15;3.00;;;36.70;30.00;;;;;;6241840;28;20037;-68
2023/06/02 12:00:46;;;;;;;10.93;3.70;;;36.60;30.00;;;;;;6228129;28;20049;-69
2023/06/02 12:04:06;;;;;;;10.20;3.40;;;35.90;30.20;;;;;;6217691;28;20026;-71
2023/06/02 12:07:19;;;;;;;5.53;3.33;;;35.10;30.90;;;;;;6217282;28;20042;-68
2023/06/02 12:10:33;;;;;;;10.00;3.78;;;34.40;31.80;;;;;;6217294;28;20113;-68
2023/06/02 12:13:43;;;;;;;4.70;3.58;;;34.10;32.50;;;;;;6199944;28;20115;-69
2023/06/02 12:17:06;;;;;;;7.50;3.58;;;34.10;32.80;;;;;;6200192;28;20030;-69
2023/06/02 12:20:19;;;;;;;4.60;3.40;;;34.30;32.50;;;;;;6217443;28;20362;-69
2023/06/02 12:23:47;;;;;;;7.07;3.42;;;34.50;32.30;;;;;;6217147;28;20480;-69
2023/06/02 12:26:55;;;;;;;8.15;3.45;;;34.50;32.20;;;;;;6217751;28;20041;-69
2023/06/02 12:30:10;;;;;;;16.02;4.22;;;34.60;32.00;;;;;;6217157;28;20077;-70
2023/06/02 12:33:20;;;;;;;6.68;3.30;;;34.80;31.60;;;;;;6217090;28;20033;-69
2023/06/02 12:36:28;;;;;;;6.05;3.38;;;35.20;31.20;;;;;;6216583;28;20034;-68
2023/06/02 12:39:37;;;;;;;6.22;3.55;;;36.00;30.70;;;;;;6216531;28;20030;-70
2023/06/02 12:42:48;;;;;;;13.70;4.15;;;36.70;29.90;;;;;;6198456;28;20030;-68
2023/06/02 12:45:58;;;;;;;6.43;3.30;;;37.10;29.20;;;;;;6216276;28;20025;-69
2023/06/02 12:49:05;;;;;;;5.13;3.28;;;37.50;28.60;;;;;;6225751;28;20021;-69
2023/06/02 12:52:19;;;;;;;6.00;3.63;;;37.70;28.40;;;;;;6241094;28;20106;-73
2023/06/02 12:55:30;;;;;;;8.25;3.58;;;37.70;28.40;;;;;;6222232;28;20465;-73
2023/06/02 12:58:35;;;;;;;7.47;3.55;;;37.90;28.10;;;;;;6214245;28;20069;-71
2023/06/02 13:01:47;;;;;;;6.80;3.90;;;38.20;27.80;;;;;;6198927;28;20167;-72
2023/06/02 13:04:56;;;;;;;5.05;3.33;;;38.40;27.40;;;;;;6182814;28;20069;-72
2023/06/02 13:08:08;;;;;;;7.40;3.50;;;38.60;27.20;;;;;;6216204;28;20029;-71
2023/06/02 13:11:19;;;;;;;4.85;3.47;;;39.20;27.00;;;;;;6216507;28;20053;-73
2023/06/02 13:14:28;;;;;;;8.18;3.83;;;39.80;26.20;;;;;;6216653;28;20137;-74
2023/06/02 13:17:37;;;;;;;5.57;3.58;;;40.30;25.60;;;;;;6199004;28;20038;-71
2023/06/02 13:20:47;;;;;;;6.00;3.65;;;40.80;25.20;;;;;;6216303;28;20109;-70
2023/06/02 13:23:57;;;;;;;10.02;3.58;;;41.40;24.70;;;;;;6198345;28;20033;-73
2023/06/02 13:27:08;;;;;;;9.23;3.40;;;41.60;23.90;;;;;;6215737;28;20478;-72
2023/06/02 13:30:23;;;;;;;5.40;3.88;;;41.80;23.70;;;;;;6215884;28;20095;-70
2023/06/02 13:33:34;;;;;;;7.82;3.83;;;42.20;23.30;;;;;;6228639;28;20107;-70
2023/06/02 13:36:44;;;;;;;4.45;3.33;;;42.10;23.30;;;;;;6239940;28;20127;-69
2023/06/02 13:39:54;;;;;;;7.72;3.55;;;42.40;23.40;;;;;;6240154;28;20045;-72
2023/06/02 13:43:09;;;;;;;6.25;3.25;;;43.00;23.20;;;;;;6221451;28;20397;-70
2023/06/02 13:46:28;;;;;;;4.88;3.25;;;43.60;22.90;;;;;;6239009;28;20036;-71
2023/06/02 13:49:36;;;;;;;4.80;3.35;;;44.20;22.50;;;;;;6239298;28;20434;-71
2023/06/02 13:52:44;;;;;;;10.57;4.30;;;44.70;22.10;;;;;;6229459;28;20114;-70
2023/06/02 13:55:49;;;;;;;12.63;4.22;;;44.00;23.30;;;;;;6218476;28;20029;-71
2023/06/02 13:58:55;;;;;;;8.32;3.88;;;42.80;25.00;;;;;;6239501;28;20108;-70
2023/06/02 14:02:05;;;;;;;5.55;3.38;;;40.80;26.40;;;;;;6239583;28;20097;-71
2023/06/02 14:05:15;;;;;;;7.28;4.00;;;38.70;28.40;;;;;;6239221;28;20522;-70
2023/06/02 14:08:24;;;;;;;9.90;3.40;;;37.10;30.60;;;;;;6239310;28;20037;-68
2023/06/02 14:11:32;;;;;;;9.55;3.80;;;36.00;32.60;;;;;;6221350;28;20148;-69
2023/06/02 14:14:39;;;;;;;6.30;3.85;;;35.20;33.80;;;;;;6239838;28;20036;-71
2023/06/02 14:17:47;;;;;;;5.55;4.10;;;34.40;34.60;;;;;;6239987;28;20037;-71
2023/06/02 14:20:55;;;;;;;6.88;3.90;;;33.80;35.30;;;;;;6239494;28;20037;-70
2023/06/02 14:24:07;;;;;;;6.18;3.80;;;33.10;36.00;;;;;;6220747;28;20450;-72
2023/06/02 14:27:14;;;;;;;7.53;3.65;;;32.50;37.00;;;;;;6238898;28;20068;-72
2023/06/02 14:30:22;;;;;;;7.13;3.22;;;32.10;37.80;;;;;;6239187;28;20029;-69
2023/06/02 14:33:32;;;;;;;8.45;3.80;;;31.60;36.60;;;;;;6238578;28;20163;-71
2023/06/02 14:36:39;;;;;;;4.88;3.38;;;31.30;36.50;;;;;;6238550;28;20137;-70
2023/06/02 14:39:49;;;;;;;6.25;3.38;;;31.10;36.50;;;;;;6238316;28;20025;-72
2023/06/02 14:43:00;;;;;;;6.07;3.33;;;30.80;36.80;;;;;;6219748;28;20132;-72
2023/06/02 14:46:14;;;;;;;6.88;3.38;;;30.60;36.70;;;;;;6240998;28;20110;-71
2023/06/02 14:49:23;;;;;;;8.27;3.33;;;30.50;37.00;;;;;;6243132;28;20089;-70
2023/06/02 14:52:39;;;;;;;8.00;5.00;;;30.20;37.40;;;;;;6231180;28;20034;-69
2023/06/02 14:55:48;;;;;;;8.07;4.40;;;30.00;37.90;;;;;;6218584;28;20053;-69
2023/06/02 14:58:55;;;;;;;16.13;4.25;;;29.90;38.40;;;;;;6218282;28;20088;-70
2023/06/02 15:02:07;;;;;;;5.50;3.65;;;29.80;38.70;;;;;;6218316;28;20477;-70
2023/06/02 15:05:18;;;;;;;18.40;4.15;;;29.70;38.80;;;;;;6218489;28;20045;-69
2023/06/02 15:08:32;;;;;;;10.57;4.00;;;29.50;39.00;;;;;;6218172;28;20084;-69
2023/06/02 15:11:41;;;;;;;5.32;3.40;;;29.50;39.40;;;;;;6218455;28;20029;-70
2023/06/02 15:14:47;;;;;;;6.15;3.83;;;29.30;39.40;;;;;;6218653;28;20121;-71
2023/06/02 15:17:53;;;;;;;8.00;4.10;;;29.30;39.90;;;;;;6220501;28;20033;-70
2023/06/02 15:20:57;;;;;;;7.97;4.28;;;29.20;40.60;;;;;;6231437;28;20467;-70
2023/06/02 15:24:01;;;;;;;8.93;4.30;;;29.10;41.70;;;;;;6228664;28;20026;-71
2023/06/02 15:27:16;;;;;;;8.40;4.65;;;29.10;42.00;;;;;;6228846;28;20060;-70
2023/06/02 15:30:19;;;;;;;8.10;4.75;;;28.90;42.30;;;;;;6232157;28;20107;-69
2023/06/02 15:33:25;;;;;;;9.07;4.85;;;28.80;42.90;;;;;;6210500;28;20034;-69
2023/06/02 15:36:30;;;;;;;12.63;4.28;;;28.70;43.60;;;;;;6197549;28;20035;-69
2023/06/02 15:39:38;;;;;;;5.15;3.97;;;28.60;44.10;;;;;;6232225;28;20037;-69
2023/06/02 15:42:42;;;;;;;9.80;3.67;;;28.40;44.10;;;;;;6214726;28;20028;-69
2023/06/02 15:45:45;;;;;;;7.78;4.00;;;28.30;44.10;;;;;;6193930;28;20041;-69
2023/06/02 15:48:48;;;;;;;7.35;3.80;;;28.20;44.70;;;;;;6196857;28;20030;-70
2023/06/02 15:51:54;;;;;;;8.07;3.72;;;28.00;45.30;;;;;;6232399;28;20021;-70
2023/06/02 15:54:56;;;;;;;8.27;4.10;;;27.90;45.90;;;;;;6211300;28;20037;-68
2023/06/02 15:57:58;;;;;;;6.80;3.92;;;27.80;46.00;;;;;;6228146;28;20076;-70
2023/06/02 16:01:03;;;;;;;8.15;3.92;;;27.70;46.20;;;;;;6218605;28;20033;-70
2023/06/02 16:04:07;;;;;;;6.80;3.72;;;27.60;46.30;;;;;;6222082;28;20258;-69
2023/06/02 16:07:09;;;;;;;7.78;3.60;;;27.50;45.70;;;;;;6230221;28;20094;-70
2023/06/02 16:10:15;;;;;;;4.57;3.10;;;27.30;45.40;;;;;;6234675;28;20028;-69
2023/06/02 16:13:18;;;;;;;5.82;3.58;;;27.20;45.30;;;;;;6231669;28;20025;-70
2023/06/02 16:16:23;;;;;;;12.15;3.53;;;27.10;45.90;;;;;;6228726;28;20104;-70
2023/06/02 16:19:28;;;;;;;12.32;4.88;;;27.00;46.50;;;;;;6202508;28;20037;-70
2023/06/02 16:22:37;;;;;;;6.03;3.95;;;26.90;46.50;;;;;;6238780;28;20170;-70
2023/06/02 16:25:42;;;;;;;10.35;4.20;;;26.80;46.60;;;;;;6214618;28;20026;-71
2023/06/02 16:28:45;;;;;;;16.90;5.25;;;26.80;46.60;;;;;;6208488;28;20040;-72
2023/06/02 16:31:48;;;;;;;9.88;4.93;;;26.80;46.90;;;;;;6230373;28;20029;-70
2023/06/02 16:34:51;;;;;;;11.25;5.15;;;26.70;47.20;;;;;;6221963;28;20112;-71
2023/06/02 16:37:58;;;;;;;7.38;4.15;;;26.60;47.60;;;;;;6207934;28;20034;-71
2023/06/02 16:41:05;;;;;;;6.35;3.47;;;26.60;48.40;;;;;;6235167;28;20053;-72
2023/06/02 16:44:10;;;;;;;10.55;3.95;;;26.40;48.70;;;;;;6217482;28;20022;-73
2023/06/02 16:47:12;;;;;;;10.68;4.35;;;26.20;48.90;;;;;;6183595;28;20033;-71
2023/06/02 16:50:14;;;;;;;9.32;5.00;;;26.00;49.40;;;;;;6199227;28;20037;-71